createdAt,value
2022-12-11T00:02:51.340Z,100
2022-12-11T00:07:49.555Z,100
2022-12-11T00:12:47.617Z,100
2022-12-11T00:17:45.754Z,100
2022-12-11T00:22:43.939Z,100
2022-12-11T00:27:42.108Z,100
2022-12-11T00:32:40.462Z,100
2022-12-11T00:37:38.774Z,100
2022-12-11T00:42:36.821Z,100
2022-12-11T00:47:34.932Z,100
2022-12-11T00:52:33.285Z,100
2022-12-11T00:57:31.438Z,100
2022-12-11T01:54:21.056Z,100
2022-12-11T01:59:18.697Z,100
2022-12-11T02:04:16.920Z,100
2022-12-11T02:09:15.251Z,100
2022-12-11T02:14:13.720Z,100
2022-12-11T02:19:11.917Z,100
2022-12-11T02:24:09.945Z,100
2022-12-11T02:29:08.387Z,100
2022-12-11T02:34:06.514Z,100
2022-12-11T02:39:04.833Z,100
2022-12-11T02:44:03.139Z,100
2022-12-11T02:49:01.432Z,100
2022-12-11T02:53:59.750Z,100
2022-12-11T02:58:58.760Z,100
2022-12-11T03:03:56.200Z,100
2022-12-11T03:08:54.263Z,100
2022-12-11T03:13:52.515Z,100
2022-12-11T03:18:50.667Z,100
2022-12-11T03:23:48.898Z,100
2022-12-11T03:28:47.146Z,100
2022-12-11T03:33:45.470Z,100
2022-12-11T03:38:43.677Z,100
2022-12-11T03:43:41.867Z,100
2022-12-11T03:48:39.991Z,100
2022-12-11T03:53:38.097Z,100
2022-12-11T03:58:36.282Z,100
2022-12-11T04:03:34.350Z,100
2022-12-11T04:08:32.693Z,100
2022-12-11T04:13:31.050Z,100
2022-12-11T04:18:29.407Z,100
2022-12-11T04:23:27.645Z,100
2022-12-11T04:28:26.123Z,100
2022-12-11T04:33:24.327Z,100
2022-12-11T04:38:22.461Z,100
2022-12-11T04:43:20.743Z,100
2022-12-11T04:48:18.906Z,100
2022-12-11T04:53:16.972Z,100
2022-12-11T04:58:15.167Z,100
2022-12-11T05:03:13.406Z,100
2022-12-11T05:08:11.458Z,100
2022-12-11T05:13:09.711Z,100
2022-12-11T05:18:07.848Z,100
2022-12-11T05:23:06.101Z,100
2022-12-11T05:28:04.434Z,100
2022-12-11T05:33:02.605Z,100
2022-12-11T05:38:00.703Z,100
2022-12-11T05:42:58.936Z,100
2022-12-11T05:47:57.600Z,100
2022-12-11T05:52:55.905Z,100
2022-12-11T05:57:54.744Z,100
2022-12-11T06:02:52.988Z,100
2022-12-11T06:07:51.528Z,100
2022-12-11T06:12:49.928Z,100
2022-12-11T06:17:48.153Z,100
2022-12-11T06:22:46.458Z,100
2022-12-11T06:27:44.884Z,100
2022-12-11T06:32:43.110Z,100
2022-12-11T06:37:41.198Z,100
2022-12-11T06:42:39.422Z,100
2022-12-11T06:47:38.223Z,100
2022-12-11T06:52:36.918Z,100
2022-12-11T06:57:35.359Z,100
2022-12-11T07:02:33.969Z,100
2022-12-11T07:07:32.955Z,100
2022-12-11T07:12:31.654Z,100
2022-12-11T07:17:30.088Z,100
2022-12-11T07:22:28.845Z,100
2022-12-11T07:27:27.250Z,99
2022-12-11T07:32:25.711Z,96.8
2022-12-11T07:37:24.688Z,93.8
2022-12-11T07:42:23.484Z,93
2022-12-11T07:47:21.147Z,94.3
2022-12-11T07:52:18.708Z,96.1
2022-12-11T07:57:16.313Z,98.1
2022-12-11T08:02:14.218Z,100
2022-12-11T08:07:12.420Z,97.8
2022-12-11T08:12:11.099Z,95.7
2022-12-11T08:17:09.673Z,94.1
2022-12-11T08:22:09.231Z,92.3
2022-12-11T08:27:07.412Z,96.1
2022-12-11T08:32:09.031Z,95.2
2022-12-11T08:37:03.388Z,94.1
2022-12-11T08:42:01.480Z,92.9
2022-12-11T08:46:59.788Z,92
2022-12-11T08:51:58.827Z,88.9
2022-12-11T08:56:58.228Z,87.4
2022-12-11T09:01:55.458Z,87.7
2022-12-11T09:06:53.449Z,89.9
2022-12-11T09:11:51.602Z,88.9
2022-12-11T09:16:49.804Z,87.7
2022-12-11T09:21:48.329Z,86.9
2022-12-11T09:26:46.720Z,85.5
2022-12-11T09:31:45.074Z,86.3
2022-12-11T09:36:44.711Z,83.5
2022-12-11T09:41:42.970Z,82.6
2022-12-11T09:46:40.727Z,86
2022-12-11T09:51:39.040Z,86.6
2022-12-11T09:56:37.641Z,84.1
2022-12-11T10:01:36.094Z,86.2
2022-12-11T10:06:34.468Z,84.2
2022-12-11T10:11:33.073Z,81.9
2022-12-11T10:16:32.259Z,76.6
2022-12-11T10:21:31.379Z,77.5
2022-12-11T10:26:28.893Z,80.8
2022-12-11T10:31:26.142Z,84.6
2022-12-11T10:36:23.617Z,87.2
2022-12-11T10:41:21.834Z,86.8
2022-12-11T10:46:20.464Z,85.7
2022-12-11T10:51:18.950Z,84
2022-12-11T10:56:18.105Z,81.9
2022-12-11T11:01:17.352Z,81
2022-12-11T11:06:15.681Z,82.6
2022-12-11T11:11:13.744Z,81.9
2022-12-11T11:16:12.079Z,80.8
2022-12-11T11:21:10.366Z,81.1
2022-12-11T11:26:07.904Z,83.5
2022-12-11T11:31:05.470Z,85.5
2022-12-11T11:36:02.938Z,88.1
2022-12-11T11:41:04.956Z,92.2
2022-12-11T11:45:58.558Z,96.3
2022-12-11T11:50:56.612Z,97.9
2022-12-11T11:55:55.856Z,100
2022-12-11T12:00:54.091Z,100
2022-12-11T12:05:52.140Z,100
2022-12-11T12:10:50.234Z,100
2022-12-11T12:15:48.414Z,100
2022-12-11T12:20:46.593Z,100
2022-12-11T12:25:44.753Z,100
2022-12-11T12:30:42.941Z,100
2022-12-11T12:35:41.020Z,100
2022-12-11T12:40:39.016Z,100
2022-12-11T12:45:36.822Z,100
2022-12-11T12:50:35.003Z,100
2022-12-11T12:55:33.914Z,100
2022-12-11T13:00:32.239Z,100
2022-12-11T13:05:30.813Z,100
2022-12-11T13:10:29.758Z,100
2022-12-11T13:15:28.174Z,100
2022-12-11T13:20:26.167Z,100
2022-12-11T13:25:24.319Z,100
2022-12-11T13:30:22.321Z,100
2022-12-11T13:35:20.246Z,100
2022-12-11T13:40:18.447Z,100
2022-12-11T13:45:16.921Z,100
2022-12-11T13:50:15.123Z,100
2022-12-11T13:55:13.615Z,100
2022-12-11T14:00:17.189Z,100
2022-12-11T14:05:10.304Z,100
2022-12-11T14:10:08.136Z,100
2022-12-11T14:15:05.988Z,100
2022-12-11T14:20:04.268Z,100
2022-12-11T14:25:02.601Z,100
2022-12-11T14:30:00.790Z,100
2022-12-11T14:34:58.877Z,100
2022-12-11T14:39:56.956Z,100
2022-12-11T14:44:54.352Z,100
2022-12-11T14:49:51.989Z,100
2022-12-11T14:54:49.685Z,100
2022-12-11T14:59:47.438Z,100
2022-12-11T15:04:45.363Z,100
2022-12-11T15:09:43.297Z,100
2022-12-11T15:14:41.816Z,100
2022-12-11T15:19:40.049Z,100
2022-12-11T15:24:38.224Z,100
2022-12-11T15:29:36.168Z,100
2022-12-11T15:34:34.278Z,100
2022-12-11T15:39:32.552Z,100
2022-12-11T15:44:30.771Z,100
2022-12-11T15:49:29.055Z,100
2022-12-11T15:54:27.686Z,100
2022-12-11T15:59:26.069Z,100
2022-12-11T16:04:24.338Z,100
2022-12-11T16:09:23.034Z,100
2022-12-11T16:14:21.258Z,100
2022-12-11T16:19:19.570Z,100
2022-12-11T16:24:18.019Z,100
2022-12-11T16:29:16.688Z,100
2022-12-11T16:34:14.837Z,100
2022-12-11T16:39:13.156Z,100
2022-12-11T16:44:11.421Z,100
2022-12-11T16:49:09.870Z,100
2022-12-11T16:54:07.731Z,100
2022-12-11T16:59:05.873Z,100
2022-12-11T17:04:04.342Z,100
2022-12-11T17:09:02.662Z,100
2022-12-11T17:14:00.658Z,100
2022-12-11T17:18:59.196Z,100
2022-12-11T17:23:57.579Z,100
2022-12-11T17:28:56.446Z,100
2022-12-11T17:33:53.252Z,100
2022-12-11T17:38:51.397Z,100
2022-12-11T17:43:49.784Z,100
2022-12-11T17:48:48.176Z,100
2022-12-11T17:53:46.465Z,100
2022-12-11T17:58:44.431Z,100
2022-12-11T18:03:42.591Z,100
2022-12-11T18:08:41.008Z,100
2022-12-11T18:13:38.939Z,100
2022-12-11T18:18:37.365Z,100
2022-12-11T18:23:35.621Z,100
2022-12-11T18:28:33.759Z,100
2022-12-11T18:33:31.876Z,100
2022-12-11T18:38:29.820Z,100
2022-12-11T18:43:27.979Z,100
2022-12-11T18:48:26.054Z,100
2022-12-11T18:53:24.324Z,100
2022-12-11T18:58:22.071Z,100
2022-12-11T19:03:20.073Z,100
2022-12-11T19:08:18.371Z,100
2022-12-11T19:13:16.753Z,100
2022-12-11T19:18:15.218Z,100
2022-12-11T19:23:13.455Z,100
2022-12-11T19:28:11.698Z,100
2022-12-11T19:33:09.872Z,100
2022-12-11T19:38:08.027Z,100
2022-12-11T19:43:06.009Z,100
2022-12-11T19:48:04.208Z,100
2022-12-11T19:53:02.982Z,100
2022-12-11T19:58:01.440Z,100
2022-12-11T20:02:59.736Z,100
2022-12-11T20:08:27.615Z,100
2022-12-11T20:12:56.412Z,100
2022-12-11T20:17:54.682Z,100
2022-12-11T20:22:53.009Z,100
2022-12-11T20:27:51.204Z,100
2022-12-11T20:32:49.622Z,100
2022-12-11T20:37:47.621Z,100
2022-12-11T20:42:45.652Z,100
2022-12-11T20:47:44.035Z,100
2022-12-11T20:52:42.324Z,100
2022-12-11T20:57:44.990Z,100
2022-12-11T21:02:38.888Z,100
2022-12-11T21:07:37.357Z,100
2022-12-11T21:12:35.506Z,100
2022-12-11T21:17:33.762Z,100
2022-12-11T21:22:32.026Z,100
2022-12-11T21:27:30.278Z,100
2022-12-11T21:32:28.436Z,100
2022-12-11T21:37:26.764Z,100
2022-12-11T21:42:24.971Z,100
2022-12-11T21:47:23.414Z,100
2022-12-11T21:52:21.781Z,100
2022-12-11T21:57:24.469Z,100
2022-12-11T22:02:18.315Z,100
2022-12-11T22:07:16.417Z,100
2022-12-11T22:12:14.612Z,100
2022-12-11T22:17:12.727Z,100
2022-12-11T22:22:10.720Z,100
2022-12-11T22:27:08.993Z,100
2022-12-11T22:32:07.207Z,100
2022-12-11T22:37:05.202Z,100
2022-12-11T22:42:03.525Z,100
2022-12-11T22:47:01.868Z,100
2022-12-11T22:52:06.047Z,100
2022-12-11T22:56:58.269Z,100
2022-12-11T23:01:56.543Z,100
2022-12-11T23:06:55.109Z,100
2022-12-11T23:11:53.182Z,100
2022-12-11T23:16:51.385Z,100
2022-12-11T23:21:49.339Z,100
2022-12-11T23:26:47.367Z,100
2022-12-11T23:31:45.660Z,100
2022-12-11T23:36:43.981Z,100
2022-12-11T23:41:42.078Z,100
2022-12-11T23:46:40.034Z,100
2022-12-11T23:51:38.015Z,100
2022-12-11T23:56:36.187Z,100
